createdAt,value
2023-05-17T00:01:14.258Z,16.15
2023-05-17T00:03:42.346Z,17.32
2023-05-17T00:06:10.403Z,18.00
2023-05-17T00:08:38.455Z,17.20
2023-05-17T00:11:06.480Z,16.35
2023-05-17T00:13:34.540Z,15.80
2023-05-17T00:16:02.610Z,16.49
2023-05-17T00:18:30.708Z,17.67
2023-05-17T00:20:58.785Z,17.60
2023-05-17T00:23:26.665Z,16.65
2023-05-17T00:25:54.559Z,15.90
2023-05-17T00:28:22.664Z,15.38
2023-05-17T00:30:51.097Z,14.98
2023-05-17T00:33:19.091Z,15.45
2023-05-17T00:35:46.946Z,16.83
2023-05-17T00:38:14.815Z,17.04
2023-05-17T00:40:42.942Z,16.18
2023-05-17T00:43:10.867Z,15.46
2023-05-17T00:45:38.892Z,14.94
2023-05-17T00:48:06.873Z,14.54
2023-05-17T00:50:34.836Z,14.74
2023-05-17T00:53:02.737Z,16.05
2023-05-17T00:55:30.892Z,16.66
2023-05-17T00:57:58.810Z,15.91
2023-05-17T01:00:27.189Z,15.15
2023-05-17T01:02:55.110Z,14.62
2023-05-17T01:05:24.276Z,14.25
2023-05-17T01:07:52.076Z,14.86
2023-05-17T01:10:20.086Z,16.03
2023-05-17T01:12:59.203Z,16.41
2023-05-17T01:15:53.910Z,15.54
2023-05-17T01:18:45.590Z,14.71
2023-05-17T01:21:57.955Z,14.15
2023-05-17T01:24:59.734Z,14.20
2023-05-17T01:27:28.538Z,15.38
2023-05-17T01:29:57.700Z,15.27
2023-05-17T01:32:26.336Z,14.53
2023-05-17T01:34:54.413Z,13.98
2023-05-17T01:37:22.492Z,13.56
2023-05-17T01:39:50.671Z,13.24
2023-05-17T01:42:25.646Z,13.29
2023-05-17T01:45:18.065Z,14.30
2023-05-17T01:48:03.884Z,14.33
2023-05-17T01:50:32.941Z,13.67
2023-05-17T01:53:08.990Z,13.22
2023-05-17T01:55:54.427Z,12.88
2023-05-17T01:58:25.639Z,13.11
2023-05-17T02:00:56.804Z,14.29
2023-05-17T02:03:25.121Z,14.81
2023-05-17T02:05:55.220Z,14.11
2023-05-17T02:08:23.395Z,13.50
2023-05-17T02:10:54.298Z,13.08
2023-05-17T02:13:22.290Z,12.76
2023-05-17T02:15:50.423Z,12.52
2023-05-17T02:18:18.395Z,12.30
2023-05-17T02:20:46.544Z,12.65
2023-05-17T02:23:14.545Z,13.62
2023-05-17T02:25:42.522Z,14.15
2023-05-17T02:28:10.438Z,13.64
2023-05-17T02:30:41.692Z,13.07
2023-05-17T02:33:09.656Z,12.67
2023-05-17T02:35:37.768Z,12.37
2023-05-17T02:38:05.863Z,12.38
2023-05-17T02:40:33.795Z,13.34
2023-05-17T02:43:01.699Z,14.33
2023-05-17T02:45:30.954Z,14.58
2023-05-17T02:47:59.066Z,13.84
2023-05-17T02:50:26.854Z,13.22
2023-05-17T02:52:55.034Z,12.79
2023-05-17T02:55:22.934Z,12.48
2023-05-17T02:57:50.913Z,12.32
2023-05-17T03:00:19.119Z,13.17
2023-05-17T03:02:47.165Z,14.33
2023-05-17T03:05:15.767Z,14.79
2023-05-17T03:07:43.615Z,14.04
2023-05-17T03:10:12.067Z,13.36
2023-05-17T03:12:40.060Z,12.87
2023-05-17T03:15:08.623Z,12.51
2023-05-17T03:17:36.962Z,12.22
2023-05-17T03:20:07.732Z,12.12
2023-05-17T03:22:35.736Z,13.07
2023-05-17T03:25:05.289Z,14.06
2023-05-17T03:27:33.078Z,14.40
2023-05-17T03:30:01.858Z,13.67
2023-05-17T03:32:29.807Z,13.02
2023-05-17T03:34:57.787Z,12.56
2023-05-17T03:37:25.852Z,12.23
2023-05-17T03:39:54.061Z,12.26
2023-05-17T03:42:21.889Z,13.30
2023-05-17T03:44:49.775Z,14.29
2023-05-17T03:47:17.780Z,14.40
2023-05-17T03:49:45.903Z,13.60
2023-05-17T03:52:13.891Z,12.98
2023-05-17T03:54:41.842Z,12.55
2023-05-17T03:57:09.735Z,12.23
2023-05-17T03:59:37.713Z,11.96
2023-05-17T04:02:06.347Z,11.75
2023-05-17T04:04:34.325Z,12.19
2023-05-17T04:07:02.321Z,13.26
2023-05-17T04:09:32.196Z,13.76
2023-05-17T04:12:00.100Z,13.14
2023-05-17T04:14:28.056Z,12.56
2023-05-17T04:16:56.292Z,12.16
2023-05-17T04:19:24.906Z,11.87
2023-05-17T04:21:53.201Z,11.66
2023-05-17T04:24:31.733Z,11.54
2023-05-17T04:27:00.784Z,12.38
2023-05-17T04:29:31.031Z,13.60
2023-05-17T04:31:59.550Z,13.84
2023-05-17T04:34:27.658Z,13.19
2023-05-17T04:36:55.475Z,12.70
2023-05-17T04:39:23.403Z,12.41
2023-05-17T04:41:51.684Z,12.21
2023-05-17T04:44:19.655Z,12.06
2023-05-17T04:46:47.558Z,11.94
2023-05-17T04:49:15.460Z,11.86
2023-05-17T04:51:43.362Z,11.81
2023-05-17T04:54:11.156Z,11.78
2023-05-17T04:56:38.976Z,11.80
2023-05-17T04:59:07.002Z,11.86
2023-05-17T05:01:35.488Z,11.92
2023-05-17T05:04:07.286Z,11.97
2023-05-17T05:06:35.397Z,11.99
2023-05-17T05:09:04.323Z,12.01
2023-05-17T05:11:32.370Z,12.04
2023-05-17T05:14:00.184Z,12.09
2023-05-17T05:16:28.254Z,12.14
2023-05-17T05:18:56.270Z,12.20
2023-05-17T05:21:24.345Z,12.79
2023-05-17T05:23:52.627Z,14.17
2023-05-17T05:26:20.518Z,14.48
2023-05-17T05:28:48.608Z,13.95
2023-05-17T05:31:16.508Z,13.56
2023-05-17T05:33:44.593Z,13.27
2023-05-17T05:36:12.648Z,13.06
2023-05-17T05:38:40.545Z,12.88
2023-05-17T05:41:08.371Z,12.76
2023-05-17T05:43:37.469Z,12.68
2023-05-17T05:46:05.568Z,12.62
2023-05-17T05:48:33.446Z,12.60
2023-05-17T05:51:01.301Z,12.64
2023-05-17T05:53:29.555Z,12.74
2023-05-17T05:55:57.414Z,12.83
2023-05-17T05:58:25.324Z,12.96
2023-05-17T06:00:53.150Z,13.09
2023-05-17T06:03:21.442Z,13.16
2023-05-17T06:05:49.453Z,13.23
2023-05-17T06:08:17.439Z,13.28
2023-05-17T06:10:46.435Z,13.29
2023-05-17T06:13:14.432Z,13.31
2023-05-17T06:15:42.688Z,13.42
2023-05-17T06:18:10.588Z,13.67
2023-05-17T06:20:38.549Z,14.02
2023-05-17T06:23:06.702Z,14.37
2023-05-17T06:25:34.520Z,14.64
2023-05-17T06:28:04.366Z,14.84
2023-05-17T06:30:32.652Z,15.05
2023-05-17T06:33:00.909Z,15.29
2023-05-17T06:35:35.264Z,15.49
2023-05-17T06:38:08.732Z,15.66
2023-05-17T06:40:36.871Z,15.77
2023-05-17T06:43:05.648Z,15.78
2023-05-17T06:45:33.638Z,15.79
2023-05-17T06:48:01.670Z,15.78
2023-05-17T06:50:30.753Z,15.74
2023-05-17T06:52:59.062Z,15.70
2023-05-17T06:55:27.678Z,15.68
2023-05-17T06:57:56.939Z,15.67
2023-05-17T07:00:25.154Z,15.68
2023-05-17T07:02:53.261Z,15.68
2023-05-17T07:05:24.514Z,15.67
2023-05-17T07:07:52.768Z,15.65
2023-05-17T07:10:21.189Z,15.63
2023-05-17T07:12:49.100Z,15.64
2023-05-17T07:15:17.197Z,15.65
2023-05-17T07:17:45.174Z,15.63
2023-05-17T07:20:14.806Z,15.62
2023-05-17T07:22:42.817Z,15.62
2023-05-17T07:25:10.898Z,15.67
2023-05-17T07:27:38.742Z,15.66
2023-05-17T07:30:07.686Z,15.64
2023-05-17T07:32:35.534Z,15.63
2023-05-17T07:35:03.788Z,15.64
2023-05-17T07:37:31.622Z,15.64
2023-05-17T07:39:59.493Z,15.69
2023-05-17T07:42:27.429Z,15.72
2023-05-17T07:44:55.203Z,15.78
2023-05-17T07:47:23.149Z,15.78
2023-05-17T07:49:51.107Z,15.71
2023-05-17T07:52:19.091Z,15.76
2023-05-17T07:54:46.889Z,15.72
2023-05-17T07:57:14.706Z,15.68
2023-05-17T07:59:42.487Z,15.67
2023-05-17T08:02:10.513Z,15.69
2023-05-17T08:04:38.643Z,15.74
2023-05-17T08:07:06.747Z,15.78
2023-05-17T08:09:34.645Z,15.86
2023-05-17T08:12:02.603Z,15.95
2023-05-17T08:14:30.672Z,16.04
2023-05-17T08:16:58.639Z,16.05
2023-05-17T08:19:26.732Z,16.02
2023-05-17T08:21:54.811Z,15.94
2023-05-17T08:24:22.752Z,15.86
2023-05-17T08:26:50.920Z,15.78
2023-05-17T08:29:18.961Z,15.68
2023-05-17T08:31:46.840Z,15.59
2023-05-17T08:34:14.869Z,15.56
2023-05-17T08:36:42.963Z,15.56
2023-05-17T08:39:10.866Z,15.54
2023-05-17T08:41:41.191Z,15.53
2023-05-17T08:44:09.539Z,15.52
2023-05-17T08:46:40.022Z,15.52
2023-05-17T08:49:08.287Z,15.43
2023-05-17T08:51:36.466Z,15.36
2023-05-17T08:54:08.438Z,15.27
2023-05-17T08:56:39.549Z,15.23
2023-05-17T08:59:10.403Z,15.20
2023-05-17T09:01:43.605Z,15.22
2023-05-17T09:04:11.758Z,15.23
2023-05-17T09:06:39.609Z,15.20
2023-05-17T09:09:07.554Z,15.21
2023-05-17T09:11:35.818Z,15.22
2023-05-17T09:14:06.485Z,15.21
2023-05-17T09:16:37.469Z,15.19
2023-05-17T09:19:07.774Z,15.17
2023-05-17T09:21:37.027Z,15.15
2023-05-17T09:24:07.937Z,15.15
2023-05-17T09:26:45.444Z,15.14
2023-05-17T09:29:16.973Z,15.09
2023-05-17T09:31:45.153Z,15.05
2023-05-17T09:34:13.346Z,15.02
2023-05-17T09:36:44.578Z,14.99
2023-05-17T09:39:14.679Z,14.92
2023-05-17T09:41:45.336Z,14.84
2023-05-17T09:44:14.725Z,14.75
2023-05-17T09:46:48.076Z,14.67
2023-05-17T09:49:17.651Z,14.61
2023-05-17T09:51:50.094Z,14.58
2023-05-17T09:54:18.554Z,14.56
2023-05-17T09:56:55.093Z,14.55
2023-05-17T09:59:23.644Z,14.58
2023-05-17T10:01:51.678Z,14.60
2023-05-17T10:04:23.231Z,14.59
2023-05-17T10:06:52.442Z,14.61
2023-05-17T10:09:22.830Z,14.58
2023-05-17T10:11:52.921Z,14.58
2023-05-17T10:14:27.708Z,14.59
2023-05-17T10:16:56.352Z,14.59
2023-05-17T10:19:25.793Z,14.56
2023-05-17T10:21:54.764Z,14.52
2023-05-17T10:24:23.320Z,14.50
2023-05-17T10:26:52.004Z,14.46
2023-05-17T10:29:21.360Z,14.43
2023-05-17T10:31:51.320Z,14.40
2023-05-17T10:34:20.689Z,14.38
2023-05-17T10:36:52.198Z,14.32
2023-05-17T10:39:22.050Z,14.29
2023-05-17T10:41:53.006Z,14.20
2023-05-17T10:44:21.964Z,14.16
2023-05-17T10:46:57.823Z,14.10
2023-05-17T10:49:37.553Z,14.03
2023-05-17T10:52:13.177Z,13.99
2023-05-17T10:54:43.532Z,13.99
2023-05-17T10:57:42.791Z,13.99
2023-05-17T11:00:22.202Z,14.02
2023-05-17T11:02:50.914Z,14.02
2023-05-17T11:05:27.974Z,14.06
2023-05-17T11:08:17.978Z,14.12
2023-05-17T11:11:25.235Z,14.20
2023-05-17T11:13:56.317Z,14.31
2023-05-17T11:16:38.170Z,14.36
2023-05-17T11:19:11.259Z,14.38
2023-05-17T11:21:49.174Z,14.40
2023-05-17T11:24:25.816Z,14.42
2023-05-17T11:26:55.472Z,14.47
2023-05-17T11:29:29.250Z,14.52
2023-05-17T11:31:57.445Z,14.58
2023-05-17T11:34:26.973Z,14.63
2023-05-17T11:36:56.657Z,14.64
2023-05-17T11:39:25.684Z,14.66
2023-05-17T11:41:57.904Z,14.65
2023-05-17T11:44:31.176Z,14.63
2023-05-17T11:47:10.072Z,14.65
2023-05-17T11:49:39.135Z,14.69
2023-05-17T11:52:08.148Z,14.69
2023-05-17T11:54:39.087Z,14.68
2023-05-17T11:57:07.020Z,14.70
2023-05-17T11:59:43.000Z,14.73
2023-05-17T12:02:11.400Z,14.74
2023-05-17T12:04:39.892Z,14.76
2023-05-17T12:07:11.180Z,14.79
2023-05-17T12:09:40.646Z,14.85
2023-05-17T12:12:08.837Z,14.93
2023-05-17T12:14:37.243Z,14.98
2023-05-17T12:17:09.471Z,14.97
2023-05-17T12:19:37.468Z,14.94
2023-05-17T12:22:12.578Z,14.92
2023-05-17T12:24:43.240Z,14.90
2023-05-17T12:27:11.759Z,14.88
2023-05-17T12:29:40.441Z,14.86
2023-05-17T12:32:10.682Z,14.84
2023-05-17T12:34:38.850Z,14.83
2023-05-17T12:37:10.821Z,14.82
2023-05-17T12:39:39.901Z,14.83
2023-05-17T12:42:09.119Z,14.85
2023-05-17T12:44:37.245Z,14.88
2023-05-17T12:47:05.403Z,14.88
2023-05-17T12:49:39.378Z,14.89
2023-05-17T12:52:07.862Z,14.94
2023-05-17T12:54:36.361Z,14.95
2023-05-17T12:57:17.183Z,14.95
2023-05-17T12:59:54.489Z,14.95
2023-05-17T13:02:23.925Z,14.95
2023-05-17T13:04:52.170Z,14.93
2023-05-17T13:07:24.431Z,14.91
2023-05-17T13:09:52.684Z,14.92
2023-05-17T13:12:24.552Z,14.91
2023-05-17T13:14:54.615Z,14.91
2023-05-17T13:17:27.844Z,14.91
2023-05-17T13:19:57.915Z,14.95
2023-05-17T13:22:26.757Z,14.99
2023-05-17T13:24:55.262Z,14.99
2023-05-17T13:27:23.251Z,14.99
2023-05-17T13:29:51.141Z,15.00
2023-05-17T13:32:19.268Z,15.02
2023-05-17T13:34:47.052Z,15.03
2023-05-17T13:37:14.935Z,15.04
2023-05-17T13:39:43.131Z,15.06
2023-05-17T13:42:12.660Z,15.09
2023-05-17T13:44:40.833Z,15.12
2023-05-17T13:47:08.754Z,15.16
2023-05-17T13:49:37.296Z,15.18
2023-05-17T13:52:09.043Z,15.20
2023-05-17T13:54:37.203Z,15.18
2023-05-17T13:57:06.605Z,15.19
2023-05-17T13:59:34.435Z,15.20
2023-05-17T14:02:02.352Z,15.19
2023-05-17T14:04:30.375Z,15.19
2023-05-17T14:06:58.514Z,15.18
2023-05-17T14:09:26.412Z,15.17
2023-05-17T14:11:54.282Z,15.16
2023-05-17T14:14:25.026Z,15.12
2023-05-17T14:16:52.886Z,15.10
2023-05-17T14:19:21.238Z,15.09
2023-05-17T14:21:50.234Z,15.08
2023-05-17T14:24:18.292Z,15.05
2023-05-17T14:26:46.195Z,15.06
2023-05-17T14:29:14.213Z,15.06
2023-05-17T14:31:42.466Z,15.09
2023-05-17T14:34:11.972Z,15.10
2023-05-17T14:36:39.830Z,15.10
2023-05-17T14:39:07.779Z,15.09
2023-05-17T14:41:36.033Z,15.09
2023-05-17T14:44:04.149Z,15.11
2023-05-17T14:46:32.017Z,15.13
2023-05-17T14:49:00.091Z,15.14
2023-05-17T14:51:27.983Z,15.18
2023-05-17T14:53:55.889Z,15.21
2023-05-17T14:56:24.558Z,15.22
2023-05-17T14:58:52.730Z,15.24
2023-05-17T15:01:21.164Z,15.25
2023-05-17T15:03:49.138Z,15.27
2023-05-17T15:06:17.340Z,15.31
2023-05-17T15:08:45.700Z,15.35
2023-05-17T15:11:14.346Z,15.35
2023-05-17T15:13:42.701Z,15.35
2023-05-17T15:16:10.623Z,15.35
2023-05-17T15:18:38.602Z,15.36
2023-05-17T15:21:06.695Z,15.34
2023-05-17T15:23:34.558Z,15.34
2023-05-17T15:26:02.445Z,15.37
2023-05-17T15:28:30.799Z,15.39
2023-05-17T15:31:03.228Z,15.41
2023-05-17T15:33:32.234Z,15.42
2023-05-17T15:36:00.254Z,15.42
2023-05-17T15:38:28.112Z,15.41
2023-05-17T15:41:04.194Z,15.42
2023-05-17T15:43:34.076Z,15.43
2023-05-17T15:46:02.228Z,15.42
2023-05-17T15:48:30.273Z,15.42
2023-05-17T15:50:58.642Z,15.44
2023-05-17T15:53:28.225Z,15.43
2023-05-17T15:55:56.426Z,15.42
2023-05-17T15:58:33.409Z,15.41
2023-05-17T16:01:05.688Z,15.42
2023-05-17T16:03:34.141Z,15.42
2023-05-17T16:06:04.214Z,15.39
2023-05-17T16:08:32.422Z,15.38
2023-05-17T16:11:02.555Z,15.37
2023-05-17T16:13:31.150Z,15.36
2023-05-17T16:15:59.749Z,15.35
2023-05-17T16:18:27.786Z,15.34
2023-05-17T16:21:14.339Z,15.33
2023-05-17T16:23:42.300Z,15.31
2023-05-17T16:26:10.854Z,15.28
2023-05-17T16:28:38.880Z,15.27
2023-05-17T16:31:07.364Z,15.25
2023-05-17T16:33:35.433Z,15.26
2023-05-17T16:36:05.020Z,15.25
2023-05-17T16:38:32.952Z,15.22
2023-05-17T16:41:03.669Z,15.20
2023-05-17T16:43:31.670Z,15.18
2023-05-17T16:45:59.543Z,15.18
2023-05-17T16:48:27.450Z,15.18
2023-05-17T16:50:56.091Z,15.18
2023-05-17T16:53:24.045Z,15.16
2023-05-17T16:55:52.002Z,15.13
2023-05-17T16:58:20.382Z,15.10
2023-05-17T17:00:48.237Z,15.08
2023-05-17T17:03:16.201Z,15.06
2023-05-17T17:05:44.163Z,15.03
2023-05-17T17:08:12.063Z,14.99
2023-05-17T17:10:39.974Z,14.96
2023-05-17T17:13:08.291Z,14.92
2023-05-17T17:15:36.221Z,14.90
2023-05-17T17:18:04.175Z,14.87
2023-05-17T17:20:32.091Z,14.84
2023-05-17T17:23:00.140Z,14.80
2023-05-17T17:25:28.384Z,14.77
2023-05-17T17:27:56.323Z,14.74
2023-05-17T17:30:24.237Z,14.72
2023-05-17T17:32:52.354Z,14.68
2023-05-17T17:35:20.452Z,14.65
2023-05-17T17:37:48.262Z,14.61
2023-05-17T17:40:16.203Z,14.58
2023-05-17T17:42:44.023Z,14.54
2023-05-17T17:45:11.810Z,14.50
2023-05-17T17:47:39.752Z,14.46
2023-05-17T17:50:08.639Z,14.42
2023-05-17T17:52:37.581Z,14.37
2023-05-17T17:55:07.103Z,14.33
2023-05-17T17:57:35.217Z,14.29
2023-05-17T18:00:04.357Z,14.24
2023-05-17T18:02:32.599Z,14.19
2023-05-17T18:05:01.065Z,14.15
2023-05-17T18:07:29.242Z,14.10
2023-05-17T18:09:57.272Z,14.04
2023-05-17T18:12:27.651Z,13.99
2023-05-17T18:14:55.927Z,13.94
2023-05-17T18:17:24.074Z,13.89
2023-05-17T18:19:52.854Z,13.84
2023-05-17T18:22:20.825Z,13.79
2023-05-17T18:24:52.462Z,13.74
2023-05-17T18:27:20.525Z,13.69
2023-05-17T18:29:48.494Z,13.63
2023-05-17T18:32:16.868Z,13.58
2023-05-17T18:34:44.968Z,13.54
2023-05-17T18:37:12.908Z,13.49
2023-05-17T18:39:40.887Z,13.44
2023-05-17T18:42:08.955Z,13.38
2023-05-17T18:44:37.066Z,13.32
2023-05-17T18:47:05.403Z,13.27
2023-05-17T18:49:33.360Z,13.23
2023-05-17T18:52:01.327Z,13.18
2023-05-17T18:54:29.761Z,13.13
2023-05-17T18:56:57.815Z,13.08
2023-05-17T18:59:25.743Z,13.03
2023-05-17T19:02:04.729Z,12.98
2023-05-17T19:04:33.600Z,12.93
2023-05-17T19:07:02.143Z,12.88
2023-05-17T19:09:32.271Z,12.83
2023-05-17T19:12:07.622Z,12.78
2023-05-17T19:14:38.542Z,12.73
2023-05-17T19:17:10.876Z,12.68
2023-05-17T19:19:39.001Z,12.63
2023-05-17T19:22:09.933Z,12.57
2023-05-17T19:24:40.780Z,12.52
2023-05-17T19:27:08.797Z,12.47
2023-05-17T19:29:36.800Z,12.41
2023-05-17T19:32:06.134Z,12.36
2023-05-17T19:34:34.116Z,12.31
2023-05-17T19:37:02.151Z,12.26
2023-05-17T19:39:30.517Z,12.21
2023-05-17T19:41:58.351Z,12.17
2023-05-17T19:44:26.349Z,12.11
2023-05-17T19:47:01.715Z,12.06
2023-05-17T19:49:36.938Z,12.01
2023-05-17T19:52:09.027Z,11.96
2023-05-17T19:54:37.110Z,11.90
2023-05-17T19:57:05.756Z,11.86
2023-05-17T19:59:34.191Z,11.80
2023-05-17T20:02:02.464Z,11.73
2023-05-17T20:04:30.439Z,11.69
2023-05-17T20:06:58.332Z,11.63
2023-05-17T20:09:30.270Z,11.59
2023-05-17T20:11:59.183Z,11.54
2023-05-17T20:14:27.937Z,11.49
2023-05-17T20:16:55.852Z,11.46
2023-05-17T20:19:23.995Z,11.42
2023-05-17T20:21:51.906Z,11.37
2023-05-17T20:24:22.530Z,11.34
2023-05-17T20:26:50.611Z,11.30
2023-05-17T20:29:18.516Z,11.27
2023-05-17T20:31:46.422Z,11.23
2023-05-17T20:34:14.968Z,11.19
2023-05-17T20:36:42.903Z,11.16
2023-05-17T20:39:11.081Z,11.12
2023-05-17T20:41:38.862Z,11.08
2023-05-17T20:44:06.843Z,11.03
2023-05-17T20:46:35.465Z,10.98
2023-05-17T20:49:03.443Z,10.94
2023-05-17T20:51:31.939Z,10.90
2023-05-17T20:53:59.764Z,10.86
2023-05-17T20:56:27.816Z,10.83
2023-05-17T20:58:56.260Z,10.80
2023-05-17T21:01:24.418Z,10.76
2023-05-17T21:03:52.715Z,10.73
2023-05-17T21:06:22.059Z,10.70
2023-05-17T21:08:50.351Z,10.67
2023-05-17T21:11:24.337Z,10.65
2023-05-17T21:13:52.304Z,10.62
2023-05-17T21:16:21.575Z,10.60
2023-05-17T21:18:50.283Z,10.59
2023-05-17T21:21:18.608Z,10.56
2023-05-17T21:23:46.939Z,10.55
2023-05-17T21:26:14.829Z,10.53
2023-05-17T21:28:42.785Z,10.52
2023-05-17T21:31:11.018Z,10.51
2023-05-17T21:33:38.936Z,10.50
2023-05-17T21:36:06.970Z,10.49
2023-05-17T21:38:34.870Z,10.49
2023-05-17T21:41:02.622Z,10.48
2023-05-17T21:43:30.441Z,10.47
2023-05-17T21:45:58.281Z,10.47
2023-05-17T21:48:26.398Z,10.46
2023-05-17T21:50:56.013Z,10.45
2023-05-17T21:53:23.917Z,10.45
2023-05-17T21:58:24.619Z,10.43
2023-05-17T22:00:52.646Z,10.42
2023-05-17T22:03:20.646Z,10.41
2023-05-17T22:05:49.266Z,10.39
2023-05-17T22:08:17.245Z,10.38
2023-05-17T22:10:56.816Z,10.37
2023-05-17T22:13:27.712Z,10.35
2023-05-17T22:15:57.387Z,10.34
2023-05-17T22:18:27.123Z,10.33
2023-05-17T22:20:55.299Z,10.31
2023-05-17T22:23:23.149Z,10.29
2023-05-17T22:25:51.285Z,10.28
2023-05-17T22:28:19.152Z,10.27
2023-05-17T22:30:47.085Z,10.25
2023-05-17T22:33:15.099Z,10.24
2023-05-17T22:35:43.022Z,10.21
2023-05-17T22:38:11.001Z,10.19
2023-05-17T22:40:38.952Z,10.18
2023-05-17T22:43:08.311Z,10.16
2023-05-17T22:45:38.019Z,10.14
2023-05-17T22:48:07.252Z,10.12
2023-05-17T22:50:35.104Z,10.10
2023-05-17T22:53:03.754Z,10.08
2023-05-17T22:55:32.594Z,10.07
2023-05-17T22:58:00.874Z,10.05
2023-05-17T23:00:29.194Z,10.04
2023-05-17T23:02:57.255Z,10.03
2023-05-17T23:05:25.297Z,10.00
2023-05-17T23:07:53.496Z,10.00
2023-05-17T23:10:21.950Z,9.98
2023-05-17T23:12:51.551Z,9.96
2023-05-17T23:15:20.733Z,9.95
2023-05-17T23:17:48.877Z,9.94
2023-05-17T23:20:17.207Z,9.93
2023-05-17T23:22:45.025Z,9.92
2023-05-17T23:25:13.026Z,9.90
2023-05-17T23:27:41.115Z,9.88
2023-05-17T23:30:09.465Z,9.87
2023-05-17T23:32:37.733Z,9.85
2023-05-17T23:35:05.973Z,9.83
2023-05-17T23:37:34.131Z,9.80
2023-05-17T23:40:09.466Z,9.78
2023-05-17T23:42:37.365Z,9.76
2023-05-17T23:45:05.976Z,9.74
2023-05-17T23:47:34.114Z,9.72
2023-05-17T23:50:03.377Z,9.69
2023-05-17T23:52:32.836Z,9.67
2023-05-17T23:55:01.705Z,9.64
2023-05-17T23:57:29.714Z,9.61
2023-05-17T23:59:57.990Z,9.58
